Time;durP1;ratioP1;P1;durP2;ratioP2;P2;SDS_P1;SDS_P2;PMS_P1;PMS_P2;Temp;Humidity;BMP_temperature;BMP_pressure;BME280_temperature;BME280_humidity;BME280_pressure;Samples;Min_cycle;Max_cycle;Signal;HPM_P1;HPM_P2
2021/03/19 00:01:41;;;;;;;3.53;2.97;;;6.60;95.40;;;;;;5113539;28;20460;-84
2021/03/19 00:04:09;;;;;;;6.88;3.50;;;6.50;98.40;;;;;;5115454;28;20237;-83
2021/03/19 00:06:37;;;;;;;7.78;3.17;;;6.40;98.70;;;;;;5119029;27;20204;-84
2021/03/19 00:09:06;;;;;;;4.00;3.70;;;6.30;99.90;;;;;;5096552;27;20237;-84
2021/03/19 00:11:35;;;;;;;3.85;3.15;;;6.30;99.90;;;;;;5104778;27;20470;-83
2021/03/19 00:14:03;;;;;;;6.32;3.83;;;6.40;99.90;;;;;;5104848;27;20210;-84
2021/03/19 00:16:30;;;;;;;4.75;3.80;;;6.50;99.90;;;;;;5109246;27;20269;-83
2021/03/19 00:19:01;;;;;;;3.75;3.40;;;6.40;99.90;;;;;;5118881;27;20220;-84
2021/03/19 00:21:28;;;;;;;3.25;3.00;;;6.40;99.90;;;;;;5132852;27;20205;-84
2021/03/19 00:23:56;;;;;;;3.70;3.28;;;6.30;99.90;;;;;;5128829;27;20217;-84
2021/03/19 00:26:23;;;;;;;4.35;3.95;;;6.30;99.90;;;;;;5107040;27;20199;-84
2021/03/19 00:28:51;;;;;;;4.85;4.35;;;6.30;99.90;;;;;;5116927;27;20237;-83
2021/03/19 00:31:18;;;;;;;3.83;3.53;;;6.20;99.90;;;;;;5098587;27;20210;-84
2021/03/19 00:33:45;;;;;;;4.32;3.85;;;6.10;99.90;;;;;;5116522;27;20242;-84
2021/03/19 00:36:13;;;;;;;3.15;2.85;;;6.20;99.90;;;;;;5101131;28;20205;-84
2021/03/19 00:38:41;;;;;;;3.78;3.45;;;6.20;99.90;;;;;;5102273;27;20227;-84
2021/03/19 00:41:08;;;;;;;4.03;3.67;;;6.20;99.90;;;;;;5111356;27;20209;-83
2021/03/19 00:43:35;;;;;;;4.85;3.95;;;6.20;99.90;;;;;;5122182;27;20661;-84
2021/03/19 00:46:03;;;;;;;4.18;3.75;;;6.20;99.90;;;;;;5119052;27;20210;-84
2021/03/19 00:48:30;;;;;;;4.60;4.18;;;6.10;99.90;;;;;;5113839;27;20234;-83
2021/03/19 00:50:58;;;;;;;6.28;4.93;;;6.10;99.90;;;;;;5126381;27;20269;-83
2021/03/19 00:53:26;;;;;;;4.75;4.35;;;6.00;99.90;;;;;;5113936;27;20271;-82
2021/03/19 00:55:56;;;;;;;5.47;4.68;;;6.00;99.90;;;;;;5117576;27;20209;-82
2021/03/19 00:58:23;;;;;;;6.03;4.53;;;6.10;99.90;;;;;;5134327;27;20561;-81
2021/03/19 01:00:50;;;;;;;5.93;4.80;;;6.00;99.90;;;;;;5112330;27;20205;-82
2021/03/19 01:03:18;;;;;;;4.22;3.83;;;6.00;99.90;;;;;;5107671;27;20252;-82
2021/03/19 01:05:46;;;;;;;5.57;5.07;;;6.30;99.90;;;;;;5120509;27;20212;-84
2021/03/19 01:08:15;;;;;;;8.02;4.60;;;6.00;99.90;;;;;;5132653;27;20227;-82
2021/03/19 01:10:45;;;;;;;5.70;5.05;;;5.90;99.90;;;;;;5109761;27;20665;-82
2021/03/19 01:13:13;;;;;;;5.70;5.20;;;6.10;99.90;;;;;;5134522;27;20206;-83
2021/03/19 01:15:41;;;;;;;5.82;5.22;;;5.80;99.90;;;;;;5117822;28;20207;-84
2021/03/19 01:18:10;;;;;;;7.25;5.25;;;6.20;99.90;;;;;;5111735;27;20204;-83
2021/03/19 01:20:39;;;;;;;4.97;4.10;;;6.30;99.90;;;;;;5140651;27;20237;-84
2021/03/19 01:23:08;;;;;;;4.45;4.05;;;6.10;99.90;;;;;;5125046;27;20208;-84
2021/03/19 01:25:35;;;;;;;4.75;4.28;;;5.90;99.90;;;;;;5131548;27;20222;-85
2021/03/19 01:28:04;;;;;;;5.93;4.78;;;6.30;99.90;;;;;;5138252;27;20209;-83
2021/03/19 01:30:34;;;;;;;6.97;3.83;;;5.80;99.90;;;;;;5141114;27;20216;-84
2021/03/19 01:33:02;;;;;;;6.80;3.90;;;5.70;99.90;;;;;;5131485;27;20199;-80
2021/03/19 01:35:32;;;;;;;6.00;4.30;;;5.70;99.90;;;;;;5118928;27;20233;-81
2021/03/19 01:38:00;;;;;;;5.43;4.07;;;5.50;99.90;;;;;;5122083;27;20301;-82
2021/03/19 01:40:32;;;;;;;4.90;4.30;;;5.50;99.90;;;;;;5142865;27;20266;-81
2021/03/19 01:43:01;;;;;;;5.65;4.80;;;5.50;99.90;;;;;;5125941;27;20298;-82
2021/03/19 01:46:05;;;;;;;4.03;3.72;;;5.40;99.90;;;;;;5132063;27;20505;-80
2021/03/19 01:49:09;;;;;;;4.53;4.13;;;5.50;99.90;;;;;;5123938;27;20257;-81
2021/03/19 01:52:14;;;;;;;3.97;3.63;;;5.60;99.90;;;;;;5107983;28;20195;-81
2021/03/19 01:55:18;;;;;;;5.10;4.60;;;5.70;99.90;;;;;;5117547;27;20200;-83
2021/03/19 01:58:25;;;;;;;4.72;4.30;;;5.50;99.90;;;;;;5109870;27;20593;-80
2021/03/19 02:01:31;;;;;;;5.25;4.22;;;5.20;99.90;;;;;;5110211;27;20223;-83
2021/03/19 02:04:37;;;;;;;9.13;5.35;;;5.20;99.90;;;;;;5133481;27;20216;-83
2021/03/19 02:07:42;;;;;;;5.47;4.90;;;5.30;99.90;;;;;;5141685;27;20209;-81
2021/03/19 02:10:46;;;;;;;5.43;4.57;;;5.30;99.90;;;;;;5126422;27;20287;-82
2021/03/19 02:14:05;;;;;;;4.82;4.38;;;5.50;99.90;;;;;;5136476;27;20232;-82
2021/03/19 02:17:09;;;;;;;6.03;4.45;;;5.50;99.90;;;;;;5050376;28;20205;-83
2021/03/19 02:20:13;;;;;;;5.05;4.00;;;5.50;99.90;;;;;;5035184;28;20246;-82
2021/03/19 02:23:18;;;;;;;5.32;4.22;;;5.40;99.90;;;;;;5097547;28;20220;-81
2021/03/19 02:26:22;;;;;;;6.05;5.45;;;5.50;99.90;;;;;;5128986;27;20196;-82
2021/03/19 02:29:27;;;;;;;7.03;4.93;;;5.50;99.90;;;;;;5122087;27;20266;-82
2021/03/19 02:32:08;;;;;;;4.57;4.13;;;5.20;99.90;;;;;;5127897;27;20291;-83
2021/03/19 02:34:41;;;;;;;4.55;4.15;;;5.30;99.90;;;;;;5133184;27;20228;-82
2021/03/19 02:37:11;;;;;;;5.15;4.80;;;5.20;99.90;;;;;;5138016;27;20763;-81
2021/03/19 02:39:38;;;;;;;5.38;4.50;;;5.30;99.90;;;;;;5113639;27;20224;-83
2021/03/19 02:42:07;;;;;;;5.90;4.93;;;5.40;99.90;;;;;;5110646;28;20200;-83
2021/03/19 02:44:35;;;;;;;6.43;5.30;;;5.60;99.90;;;;;;5134731;27;20276;-83
2021/03/19 02:47:05;;;;;;;6.28;5.68;;;5.40;99.90;;;;;;5116251;28;20207;-82
2021/03/19 02:49:33;;;;;;;6.85;5.10;;;5.40;99.90;;;;;;5111019;28;20236;-82
2021/03/19 02:52:18;;;;;;;4.72;4.43;;;5.40;99.90;;;;;;5120177;27;20206;-83
2021/03/19 02:54:46;;;;;;;6.15;5.65;;;5.40;99.90;;;;;;5109274;28;22170;-84
2021/03/19 02:57:13;;;;;;;6.45;4.78;;;5.30;99.90;;;;;;5125850;27;20664;-83
2021/03/19 02:59:41;;;;;;;5.75;5.15;;;5.40;99.90;;;;;;5119654;28;20669;-82
2021/03/19 03:02:09;;;;;;;5.55;5.05;;;5.00;99.90;;;;;;5114453;28;20204;-81
2021/03/19 03:04:37;;;;;;;6.13;5.57;;;5.10;99.90;;;;;;5124242;28;20245;-82
2021/03/19 03:07:04;;;;;;;6.30;5.70;;;5.20;99.90;;;;;;5117462;28;20256;-83
2021/03/19 03:09:34;;;;;;;5.60;5.10;;;5.30;99.90;;;;;;5100858;28;20228;-81
2021/03/19 03:12:02;;;;;;;6.20;5.60;;;5.30;99.90;;;;;;5111232;28;20197;-83
2021/03/19 03:14:31;;;;;;;6.43;5.78;;;5.20;99.90;;;;;;5134304;28;20201;-81
2021/03/19 03:17:00;;;;;;;7.80;5.75;;;5.00;99.90;;;;;;5128740;28;20231;-83
2021/03/19 03:19:29;;;;;;;8.13;5.50;;;5.00;99.90;;;;;;5110174;28;20223;-83
2021/03/19 03:21:58;;;;;;;6.72;6.13;;;4.80;99.90;;;;;;5134762;28;20203;-83
2021/03/19 03:24:27;;;;;;;6.70;5.32;;;4.90;99.90;;;;;;5121477;28;20243;-84
2021/03/19 03:26:56;;;;;;;5.43;4.93;;;5.10;99.90;;;;;;5125054;28;20207;-83
2021/03/19 03:29:24;;;;;;;6.78;4.20;;;5.30;99.90;;;;;;5096902;28;20237;-83
2021/03/19 03:31:52;;;;;;;6.55;5.10;;;5.40;99.90;;;;;;5132630;28;20595;-82
2021/03/19 03:34:20;;;;;;;6.80;6.10;;;5.50;99.90;;;;;;5128345;28;20196;-82
2021/03/19 03:36:49;;;;;;;7.38;5.82;;;5.40;99.90;;;;;;5104683;28;20202;-84
2021/03/19 03:39:18;;;;;;;5.85;4.90;;;5.20;99.90;;;;;;5104152;28;20212;-83
2021/03/19 03:41:45;;;;;;;5.65;4.88;;;5.40;99.90;;;;;;5112559;28;20611;-83
2021/03/19 03:44:13;;;;;;;6.30;5.50;;;5.50;99.90;;;;;;5112587;28;20201;-83
2021/03/19 03:46:42;;;;;;;5.47;5.07;;;5.80;99.90;;;;;;5108090;28;20214;-83
2021/03/19 03:49:09;;;;;;;5.88;5.15;;;5.50;99.90;;;;;;5096330;28;20221;-82
2021/03/19 03:51:37;;;;;;;5.45;4.95;;;5.60;99.90;;;;;;5096451;28;20211;-83
2021/03/19 03:54:05;;;;;;;5.25;4.75;;;5.90;99.90;;;;;;5127244;27;20230;-83
2021/03/19 03:56:33;;;;;;;5.30;4.80;;;5.60;99.90;;;;;;5137436;27;20215;-83
2021/03/19 03:59:01;;;;;;;5.20;4.80;;;5.60;99.90;;;;;;5101564;28;20363;-82
2021/03/19 04:01:28;;;;;;;7.03;5.38;;;5.90;99.90;;;;;;5110653;27;20211;-82
2021/03/19 04:03:55;;;;;;;5.72;5.13;;;5.50;99.90;;;;;;5129015;27;20223;-83
2021/03/19 04:06:23;;;;;;;5.60;5.10;;;5.50;99.90;;;;;;5136004;27;20202;-83
2021/03/19 04:08:50;;;;;;;6.93;5.20;;;5.50;99.90;;;;;;5137746;27;20221;-83
2021/03/19 04:11:22;;;;;;;5.70;5.20;;;5.50;99.90;;;;;;5118868;27;20200;-83
2021/03/19 04:13:50;;;;;;;5.40;4.90;;;5.50;99.90;;;;;;5111448;27;20212;-83
2021/03/19 04:16:18;;;;;;;7.60;5.53;;;5.60;99.90;;;;;;5120825;27;20202;-82
2021/03/19 04:18:46;;;;;;;6.25;5.60;;;5.40;99.90;;;;;;5130919;27;20789;-81
2021/03/19 04:21:14;;;;;;;6.15;5.65;;;5.60;99.90;;;;;;5126417;27;20729;-82
2021/03/19 04:23:43;;;;;;;7.10;4.75;;;5.30;99.90;;;;;;5111059;27;20216;-82
2021/03/19 04:26:22;;;;;;;7.78;5.60;;;5.70;99.90;;;;;;5118964;27;20198;-81
2021/03/19 04:28:50;;;;;;;6.15;5.40;;;5.50;99.90;;;;;;5117740;27;20621;-80
2021/03/19 04:31:17;;;;;;;7.32;5.78;;;5.30;99.90;;;;;;5138278;27;20204;-81
2021/03/19 04:33:44;;;;;;;6.20;5.60;;;5.20;99.90;;;;;;5117884;27;20235;-81
2021/03/19 04:36:26;;;;;;;6.50;5.82;;;5.10;99.90;;;;;;5134025;27;20199;-82
2021/03/19 04:38:57;;;;;;;6.38;5.55;;;5.10;99.90;;;;;;5106878;27;20348;-82
2021/03/19 04:41:26;;;;;;;5.93;5.10;;;5.10;99.90;;;;;;5127153;27;20260;-81
2021/03/19 04:43:54;;;;;;;6.68;6.07;;;5.30;99.90;;;;;;5125837;27;20792;-81
2021/03/19 04:46:21;;;;;;;6.22;5.40;;;5.30;99.90;;;;;;5119148;27;20252;-81
2021/03/19 04:48:49;;;;;;;8.48;7.57;;;5.10;99.90;;;;;;5118867;27;20773;-81
2021/03/19 04:51:16;;;;;;;5.88;5.28;;;5.10;99.90;;;;;;5137419;27;20247;-80
2021/03/19 04:53:51;;;;;;;7.63;6.10;;;5.00;99.90;;;;;;5106300;27;20223;-81
2021/03/19 04:56:19;;;;;;;7.32;5.72;;;5.00;99.90;;;;;;5135358;27;20201;-82
2021/03/19 04:58:47;;;;;;;6.72;5.65;;;4.90;99.90;;;;;;5127521;27;20286;-82
2021/03/19 05:01:14;;;;;;;6.25;5.53;;;5.10;99.90;;;;;;5121295;27;20212;-81
2021/03/19 05:03:42;;;;;;;6.60;5.68;;;5.20;99.90;;;;;;5121901;27;20193;-81
2021/03/19 05:06:10;;;;;;;6.55;5.00;;;5.20;99.90;;;;;;5113906;27;20197;-82
2021/03/19 05:08:38;;;;;;;5.85;5.30;;;5.30;99.90;;;;;;5111106;27;20248;-81
2021/03/19 05:11:05;;;;;;;7.65;5.40;;;5.20;99.90;;;;;;5126435;27;20220;-81
2021/03/19 05:13:32;;;;;;;6.68;5.57;;;5.50;99.90;;;;;;5125272;27;20210;-81
2021/03/19 05:16:01;;;;;;;6.82;6.22;;;5.20;99.90;;;;;;5120132;27;21046;-82
2021/03/19 05:18:28;;;;;;;7.07;6.22;;;5.20;99.90;;;;;;5106922;27;20231;-81
2021/03/19 05:20:56;;;;;;;10.30;7.60;;;5.20;99.90;;;;;;5114807;27;20294;-81
2021/03/19 05:23:29;;;;;;;8.70;5.90;;;5.20;99.90;;;;;;5112465;27;20201;-82
2021/03/19 05:25:57;;;;;;;7.25;5.57;;;5.20;99.90;;;;;;5112482;27;20763;-81
2021/03/19 05:28:25;;;;;;;7.00;5.78;;;5.30;99.90;;;;;;5135917;27;21102;-81
2021/03/19 05:30:54;;;;;;;7.18;6.47;;;5.70;99.90;;;;;;5107686;27;20220;-82
2021/03/19 05:33:24;;;;;;;6.50;5.47;;;5.40;99.90;;;;;;5135159;27;20274;-84
2021/03/19 05:35:52;;;;;;;7.85;6.13;;;5.30;99.90;;;;;;5135441;27;20203;-82
2021/03/19 05:38:19;;;;;;;8.07;6.63;;;5.40;99.90;;;;;;5135872;27;20761;-83
2021/03/19 05:40:50;;;;;;;8.10;6.63;;;5.40;99.90;;;;;;5116347;27;20650;-79
2021/03/19 05:43:31;;;;;;;6.13;5.63;;;5.30;99.90;;;;;;5116398;27;20214;-84
2021/03/19 05:46:02;;;;;;;8.35;6.38;;;5.40;99.90;;;;;;5129482;27;20204;-83
2021/03/19 05:48:40;;;;;;;8.13;6.43;;;5.40;99.90;;;;;;5116348;27;20987;-81
2021/03/19 05:51:20;;;;;;;8.55;7.13;;;5.40;99.90;;;;;;5117398;27;20250;-80
2021/03/19 05:53:56;;;;;;;7.20;6.45;;;5.30;99.90;;;;;;5119190;27;20973;-83
2021/03/19 05:56:27;;;;;;;10.05;7.60;;;5.30;99.90;;;;;;5130023;27;20198;-83
2021/03/19 05:58:55;;;;;;;7.80;6.85;;;5.30;99.90;;;;;;5107874;28;20233;-83
2021/03/19 06:01:22;;;;;;;6.97;5.55;;;5.30;99.90;;;;;;5133298;27;20207;-82
2021/03/19 06:03:50;;;;;;;7.10;6.07;;;5.30;99.90;;;;;;5128650;27;20187;-81
2021/03/19 06:06:18;;;;;;;8.60;6.78;;;5.40;99.90;;;;;;5116811;27;20210;-83
2021/03/19 06:08:47;;;;;;;7.63;5.90;;;5.40;99.90;;;;;;5100805;27;20231;-84
2021/03/19 06:11:22;;;;;;;7.40;5.38;;;5.40;99.90;;;;;;5113597;27;20200;-83
2021/03/19 06:14:00;;;;;;;8.15;7.30;;;5.40;99.90;;;;;;5134029;27;20220;-81
2021/03/19 06:16:42;;;;;;;7.78;5.78;;;5.70;99.90;;;;;;5126558;27;20202;-83
2021/03/19 06:19:30;;;;;;;7.90;6.80;;;5.50;99.90;;;;;;5103202;27;20472;-81
2021/03/19 06:22:18;;;;;;;7.93;6.38;;;5.50;99.90;;;;;;5126064;27;20215;-84
2021/03/19 06:24:59;;;;;;;8.50;7.32;;;5.50;99.90;;;;;;5128107;27;20204;-83
2021/03/19 06:27:34;;;;;;;8.00;7.20;;;5.50;99.90;;;;;;5110272;27;20212;-82
2021/03/19 06:30:09;;;;;;;6.57;5.97;;;5.50;99.90;;;;;;5110821;27;20227;-81
2021/03/19 06:32:36;;;;;;;7.80;7.00;;;5.50;99.90;;;;;;5106470;27;20202;-82
2021/03/19 06:35:25;;;;;;;8.80;6.93;;;5.40;99.90;;;;;;5137061;27;20485;-80
2021/03/19 06:37:53;;;;;;;7.53;6.50;;;5.50;99.90;;;;;;5132685;27;20450;-82
2021/03/19 06:40:29;;;;;;;7.35;5.85;;;5.50;99.90;;;;;;5138611;27;20453;-82
2021/03/19 06:43:12;;;;;;;9.13;7.05;;;5.50;99.90;;;;;;5114870;27;20643;-82
2021/03/19 06:45:39;;;;;;;10.75;7.35;;;5.80;99.90;;;;;;5131074;27;20209;-82
2021/03/19 06:48:27;;;;;;;10.57;7.90;;;5.50;99.90;;;;;;5112368;27;20205;-81
2021/03/19 06:50:55;;;;;;;8.23;7.40;;;5.60;99.90;;;;;;5107490;28;20214;-82
2021/03/19 06:53:25;;;;;;;7.72;6.57;;;5.50;99.90;;;;;;5122274;27;20242;-81
2021/03/19 06:55:54;;;;;;;7.60;6.63;;;5.50;99.90;;;;;;5114208;28;20208;-81
2021/03/19 06:58:36;;;;;;;7.65;6.95;;;5.80;99.90;;;;;;5126455;27;20598;-82
2021/03/19 07:01:12;;;;;;;7.18;6.40;;;5.50;99.90;;;;;;5133094;28;20212;-80
2021/03/19 07:03:58;;;;;;;6.40;5.85;;;5.70;99.90;;;;;;5111498;28;20200;-81
2021/03/19 07:07:03;;;;;;;8.52;7.15;;;5.50;99.90;;;;;;5116999;28;20223;-83
2021/03/19 07:09:45;;;;;;;7.28;5.20;;;5.50;99.90;;;;;;5123442;27;20223;-82
2021/03/19 07:12:28;;;;;;;7.20;6.03;;;5.50;99.90;;;;;;5109866;28;20208;-82
2021/03/19 07:15:10;;;;;;;7.30;6.50;;;5.50;99.90;;;;;;5104625;28;20202;-83
2021/03/19 07:17:54;;;;;;;7.80;6.53;;;5.50;99.90;;;;;;5116868;28;20404;-82
2021/03/19 07:20:36;;;;;;;7.47;6.70;;;5.60;99.90;;;;;;5135018;28;20209;-83
2021/03/19 07:23:14;;;;;;;8.02;7.00;;;5.60;99.90;;;;;;5111447;28;20317;-84
2021/03/19 07:26:07;;;;;;;10.10;7.38;;;5.60;99.90;;;;;;5128245;27;20562;-83
2021/03/19 07:29:18;;;;;;;8.48;7.15;;;5.60;99.90;;;;;;5130370;28;20645;-83
2021/03/19 07:32:00;;;;;;;10.70;8.25;;;5.60;99.90;;;;;;5049546;28;20302;-81
2021/03/19 07:34:54;;;;;;;9.15;7.80;;;5.60;99.90;;;;;;5121212;27;20232;-82
2021/03/19 07:37:43;;;;;;;7.30;6.35;;;5.70;99.90;;;;;;5135561;27;20211;-83
2021/03/19 07:40:28;;;;;;;8.68;7.20;;;5.70;99.90;;;;;;5112151;27;20620;-83
2021/03/19 07:43:24;;;;;;;8.23;7.43;;;5.70;99.90;;;;;;5113527;27;20212;-83
2021/03/19 07:46:06;;;;;;;9.23;8.30;;;5.80;99.90;;;;;;5136686;27;20198;-82
2021/03/19 07:48:48;;;;;;;8.35;7.25;;;5.80;99.90;;;;;;5118527;27;20229;-81
2021/03/19 07:51:27;;;;;;;8.27;7.47;;;5.90;99.90;;;;;;5134246;27;20198;-83
2021/03/19 07:54:06;;;;;;;9.48;8.45;;;6.00;99.90;;;;;;5118479;27;20450;-82
2021/03/19 07:56:43;;;;;;;11.13;8.18;;;6.40;99.90;;;;;;5135434;27;20487;-81
2021/03/19 07:59:29;;;;;;;8.93;7.28;;;6.00;99.90;;;;;;5136146;27;20224;-83
2021/03/19 08:02:17;;;;;;;7.75;7.00;;;6.00;99.90;;;;;;5121212;27;20212;-82
2021/03/19 08:04:59;;;;;;;9.45;7.70;;;6.00;99.90;;;;;;5112814;27;20224;-83
2021/03/19 08:07:32;;;;;;;7.50;6.80;;;6.00;99.90;;;;;;5116933;27;20214;-81
2021/03/19 08:10:05;;;;;;;7.78;6.97;;;6.00;99.90;;;;;;5134583;27;20743;-84
2021/03/19 08:12:41;;;;;;;8.02;7.05;;;5.90;99.90;;;;;;5129803;27;20204;-79
2021/03/19 08:15:22;;;;;;;8.75;6.47;;;5.90;99.90;;;;;;5113957;27;20203;-85
2021/03/19 08:17:58;;;;;;;9.35;7.10;;;5.90;99.90;;;;;;5118171;27;20201;-84
2021/03/19 08:20:49;;;;;;;7.60;6.80;;;5.90;99.90;;;;;;5112029;27;20201;-83
2021/03/19 08:23:24;;;;;;;6.45;5.85;;;5.80;99.90;;;;;;5113096;27;20186;-81
2021/03/19 08:25:52;;;;;;;5.82;5.22;;;6.30;99.90;;;;;;5128977;27;20201;-82
2021/03/19 08:28:29;;;;;;;7.95;7.10;;;5.90;99.90;;;;;;5135740;27;20783;-81
2021/03/19 08:31:03;;;;;;;6.45;5.70;;;6.00;99.90;;;;;;5108704;27;20212;-81
2021/03/19 08:33:45;;;;;;;5.82;5.28;;;6.40;99.90;;;;;;5130380;27;20715;-82
2021/03/19 08:36:21;;;;;;;7.15;6.43;;;6.10;99.90;;;;;;5133009;27;20208;-81
2021/03/19 08:38:52;;;;;;;8.98;5.85;;;6.20;99.90;;;;;;5140344;27;20286;-83
2021/03/19 08:41:22;;;;;;;9.15;5.53;;;6.20;99.90;;;;;;5127929;27;20226;-81
2021/03/19 08:43:53;;;;;;;8.50;6.50;;;6.20;99.90;;;;;;5145274;27;20208;-83
2021/03/19 08:46:25;;;;;;;6.55;5.90;;;6.40;99.90;;;;;;5149865;27;20206;-84
2021/03/19 08:48:57;;;;;;;7.20;5.70;;;6.20;99.90;;;;;;5115900;28;20230;-81
2021/03/19 08:51:38;;;;;;;7.00;5.80;;;6.10;99.90;;;;;;5137311;27;20203;-83
2021/03/19 08:54:32;;;;;;;6.18;5.57;;;6.10;99.90;;;;;;5144872;27;20505;-81
2021/03/19 08:57:36;;;;;;;5.82;5.22;;;6.20;99.90;;;;;;5132205;27;20209;-81
2021/03/19 09:00:09;;;;;;;7.63;6.93;;;6.20;99.90;;;;;;5114917;27;20221;-81
2021/03/19 09:02:53;;;;;;;7.18;6.47;;;6.30;99.90;;;;;;5116194;27;20262;-83
2021/03/19 09:05:33;;;;;;;6.68;5.97;;;6.20;99.90;;;;;;5114688;27;20213;-80
2021/03/19 09:08:26;;;;;;;6.63;5.43;;;6.10;99.90;;;;;;5126471;27;20249;-84
2021/03/19 09:11:03;;;;;;;9.35;6.93;;;6.20;99.90;;;;;;5112680;27;20233;-86
2021/03/19 09:13:30;;;;;;;7.47;6.60;;;6.20;99.90;;;;;;5123139;27;20226;-79
2021/03/19 09:16:37;;;;;;;13.32;6.50;;;6.20;99.90;;;;;;5118772;27;20202;-82
2021/03/19 09:19:59;;;;;;;5.85;5.25;;;6.20;99.90;;;;;;5116762;27;20224;-80
2021/03/19 09:22:35;;;;;;;8.15;6.40;;;6.20;99.90;;;;;;5115953;27;20204;-84
2021/03/19 09:25:35;;;;;;;7.25;5.57;;;6.20;99.90;;;;;;5112338;27;20201;-85
2021/03/19 09:28:52;;;;;;;7.57;6.45;;;6.20;99.90;;;;;;5131242;27;20204;-83
2021/03/19 09:31:43;;;;;;;5.95;5.32;;;6.20;99.90;;;;;;5094576;27;20217;-82
2021/03/19 09:34:20;;;;;;;10.38;7.43;;;6.20;99.90;;;;;;5130594;27;20695;-84
2021/03/19 09:37:27;;;;;;;11.00;9.32;;;6.10;99.90;;;;;;5111396;27;20206;-82
2021/03/19 09:40:46;;;;;;;12.85;8.43;;;6.00;99.90;;;;;;5122240;27;20237;-81
2021/03/19 09:43:39;;;;;;;9.73;8.05;;;6.10;99.90;;;;;;5051008;28;20432;-83
2021/03/19 09:46:16;;;;;;;12.27;9.83;;;6.10;99.90;;;;;;5030431;28;20215;-82
2021/03/19 09:48:57;;;;;;;11.00;9.57;;;6.30;99.90;;;;;;5088061;27;20500;-81
2021/03/19 09:51:34;;;;;;;11.77;9.55;;;6.20;99.90;;;;;;5126064;27;20201;-83
2021/03/19 09:54:20;;;;;;;11.60;9.55;;;6.40;99.90;;;;;;5117163;27;20221;-83
2021/03/19 09:57:04;;;;;;;9.57;8.57;;;6.40;99.90;;;;;;5107496;27;20285;-83
2021/03/19 09:59:34;;;;;;;9.27;8.40;;;6.20;99.90;;;;;;5133349;27;20255;-82
2021/03/19 10:02:02;;;;;;;11.63;9.07;;;6.30;99.90;;;;;;5108517;27;20257;-83
2021/03/19 10:04:35;;;;;;;9.95;8.25;;;6.30;99.90;;;;;;5110793;27;20198;-80
2021/03/19 10:07:14;;;;;;;11.25;8.68;;;6.30;99.90;;;;;;5114903;27;20268;-82
2021/03/19 10:09:44;;;;;;;10.40;8.93;;;6.20;99.90;;;;;;5103523;27;20212;-78
2021/03/19 10:12:15;;;;;;;9.35;8.05;;;6.30;99.90;;;;;;5122496;27;20204;-81
2021/03/19 10:14:50;;;;;;;9.43;8.13;;;6.30;99.90;;;;;;5108766;27;20262;-82
2021/03/19 10:17:27;;;;;;;9.60;8.48;;;6.50;99.90;;;;;;5111364;27;20207;-82
2021/03/19 10:19:59;;;;;;;12.80;8.38;;;6.60;99.90;;;;;;5123859;27;20233;-81
2021/03/19 10:22:39;;;;;;;11.40;9.60;;;6.40;99.90;;;;;;5129048;27;20288;-81
2021/03/19 10:25:26;;;;;;;9.93;7.82;;;6.40;99.90;;;;;;5117712;27;20458;-82
2021/03/19 10:28:06;;;;;;;9.60;8.25;;;6.40;99.90;;;;;;5120712;27;20208;-83
2021/03/19 10:30:37;;;;;;;9.07;7.13;;;6.60;1.00;;;;;;5129049;27;21122;-86
2021/03/19 10:33:15;;;;;;;9.82;7.93;;;7.00;1.00;;;;;;5125330;27;20562;-84
2021/03/19 10:35:48;;;;;;;7.53;6.60;;;7.30;99.90;;;;;;5115221;27;20206;-84
2021/03/19 10:38:22;;;;;;;6.78;6.07;;;7.40;99.90;;;;;;5103491;27;20659;-81
2021/03/19 10:40:54;;;;;;;7.20;6.50;;;7.50;99.90;;;;;;5140644;27;20211;-80
2021/03/19 10:43:27;;;;;;;5.65;5.05;;;7.70;99.90;;;;;;5125842;27;20201;-81
2021/03/19 10:46:00;;;;;;;7.82;5.85;;;7.80;99.90;;;;;;5109277;27;20203;-83
2021/03/19 10:48:38;;;;;;;5.53;5.00;;;7.60;99.90;;;;;;5101404;28;20751;-83
2021/03/19 10:51:15;;;;;;;6.07;5.47;;;7.60;99.90;;;;;;5117732;27;20462;-79
2021/03/19 10:53:50;;;;;;;5.83;5.33;;;7.50;99.90;;;;;;5113451;28;20474;-81
2021/03/19 10:56:19;;;;;;;6.55;5.18;;;7.40;99.90;;;;;;5123177;27;20480;-79
2021/03/19 10:58:53;;;;;;;6.37;5.77;;;7.30;99.90;;;;;;5110102;27;20246;-79
2021/03/19 11:01:34;;;;;;;7.78;6.97;;;7.30;99.90;;;;;;5108629;28;21266;-80
2021/03/19 11:04:05;;;;;;;10.40;6.10;;;7.30;99.90;;;;;;5113326;27;20198;-80
2021/03/19 11:06:40;;;;;;;5.88;5.25;;;7.30;99.90;;;;;;5119691;28;20677;-80
2021/03/19 11:09:11;;;;;;;6.43;5.77;;;7.40;99.90;;;;;;5121068;28;20222;-82
2021/03/19 11:11:40;;;;;;;5.20;4.70;;;7.50;99.90;;;;;;5101452;28;20465;-80
2021/03/19 11:14:13;;;;;;;6.07;5.47;;;7.50;99.90;;;;;;5124065;28;20478;-79
2021/03/19 11:16:43;;;;;;;6.10;5.60;;;7.40;99.90;;;;;;5115905;27;20466;-80
2021/03/19 11:19:15;;;;;;;5.13;4.65;;;7.40;99.90;;;;;;5098980;27;20311;-81
2021/03/19 11:21:46;;;;;;;4.13;3.83;;;7.10;99.90;;;;;;5121717;27;20206;-80
2021/03/19 11:24:21;;;;;;;4.93;4.47;;;7.00;99.90;;;;;;5120553;27;20220;-79
2021/03/19 11:26:58;;;;;;;4.05;3.22;;;7.00;99.90;;;;;;5108872;27;20459;-80
2021/03/19 11:29:30;;;;;;;3.30;3.00;;;7.00;99.90;;;;;;5117397;28;20241;-80
2021/03/19 11:32:05;;;;;;;5.22;3.65;;;6.90;99.90;;;;;;5119409;28;20209;-80
2021/03/19 11:34:40;;;;;;;4.45;4.15;;;6.80;99.90;;;;;;5124149;28;21015;-81
2021/03/19 11:37:14;;;;;;;5.32;4.82;;;6.80;99.90;;;;;;5124838;28;20453;-80
2021/03/19 11:39:56;;;;;;;5.05;4.40;;;6.70;99.90;;;;;;5129346;28;20289;-80
2021/03/19 11:42:26;;;;;;;4.45;4.07;;;6.70;99.90;;;;;;5127463;27;20657;-83
2021/03/19 11:44:56;;;;;;;4.38;3.97;;;6.70;99.90;;;;;;5130556;28;20200;-80
2021/03/19 11:47:25;;;;;;;3.92;3.63;;;6.70;99.90;;;;;;5097344;28;20286;-81
2021/03/19 11:50:04;;;;;;;4.23;3.83;;;6.80;99.90;;;;;;5123006;28;20226;-80
2021/03/19 11:52:32;;;;;;;4.38;3.97;;;6.90;99.90;;;;;;5108094;28;20453;-81
2021/03/19 11:55:00;;;;;;;3.70;3.40;;;6.90;99.90;;;;;;5130092;28;20225;-82
2021/03/19 11:57:27;;;;;;;3.90;3.50;;;7.00;99.90;;;;;;5108595;28;20258;-81
2021/03/19 11:59:55;;;;;;;3.88;3.58;;;7.00;99.90;;;;;;5120890;28;20745;-81
2021/03/19 12:02:28;;;;;;;3.20;2.97;;;7.00;99.90;;;;;;5128136;28;20190;-82
2021/03/19 12:04:55;;;;;;;3.70;3.40;;;7.00;99.90;;;;;;5108069;28;20203;-81
2021/03/19 12:07:23;;;;;;;2.97;2.72;;;6.90;99.90;;;;;;5109323;28;20198;-81
2021/03/19 12:09:51;;;;;;;3.80;3.50;;;7.00;99.90;;;;;;5118159;28;20708;-81
2021/03/19 12:12:23;;;;;;;3.05;2.85;;;7.00;99.90;;;;;;5102521;28;20208;-82
2021/03/19 12:14:50;;;;;;;4.00;3.20;;;6.90;99.90;;;;;;5133674;27;20218;-82
2021/03/19 12:17:18;;;;;;;3.78;3.40;;;7.00;99.90;;;;;;5127311;27;21212;-81
2021/03/19 12:19:45;;;;;;;5.78;3.72;;;6.90;99.90;;;;;;5128425;27;20243;-82
2021/03/19 12:22:12;;;;;;;4.75;3.33;;;6.90;99.90;;;;;;5131897;27;20198;-79
2021/03/19 12:24:40;;;;;;;5.28;3.90;;;7.10;99.90;;;;;;5128034;27;20201;-82
2021/03/19 12:27:08;;;;;;;3.90;3.42;;;6.70;99.90;;;;;;5126404;27;20198;-80
2021/03/19 12:29:36;;;;;;;4.82;4.40;;;6.70;99.90;;;;;;5122401;27;20452;-81
2021/03/19 12:32:04;;;;;;;5.00;4.50;;;6.60;99.90;;;;;;5125954;27;20202;-80
2021/03/19 12:34:32;;;;;;;6.40;5.77;;;6.60;99.90;;;;;;5104563;27;20619;-82
2021/03/19 12:37:01;;;;;;;31.20;15.30;;;6.70;99.90;;;;;;5104316;27;20942;-82
2021/03/19 12:39:28;;;;;;;5.30;4.90;;;6.90;99.90;;;;;;5109478;27;21147;-81
2021/03/19 12:41:56;;;;;;;5.40;4.80;;;7.10;99.90;;;;;;5127398;27;20545;-83
2021/03/19 12:44:24;;;;;;;5.72;5.22;;;7.10;99.90;;;;;;5107489;27;20799;-81
2021/03/19 12:46:52;;;;;;;7.13;6.03;;;7.00;99.90;;;;;;5124761;27;20201;-82
2021/03/19 12:49:20;;;;;;;6.80;5.87;;;7.00;99.90;;;;;;5105241;27;20491;-82
2021/03/19 12:51:47;;;;;;;4.97;4.53;;;7.00;99.90;;;;;;5110048;27;21009;-82
2021/03/19 12:54:14;;;;;;;6.13;5.47;;;7.00;99.90;;;;;;5110917;27;20229;-81
2021/03/19 12:56:42;;;;;;;5.05;4.55;;;6.90;99.90;;;;;;5124842;27;20192;-79
2021/03/19 12:59:09;;;;;;;6.53;5.55;;;6.80;99.90;;;;;;5130882;27;20221;-82
2021/03/19 13:01:37;;;;;;;6.77;5.57;;;6.70;99.90;;;;;;5102165;27;20225;-80
2021/03/19 13:04:05;;;;;;;9.35;7.30;;;6.80;99.90;;;;;;5117662;27;20445;-79
2021/03/19 13:06:33;;;;;;;9.03;6.20;;;6.70;99.90;;;;;;5106411;27;20695;-79
2021/03/19 13:09:01;;;;;;;7.87;6.10;;;6.70;99.90;;;;;;5129195;27;20982;-79
2021/03/19 13:11:28;;;;;;;7.63;6.57;;;6.80;99.90;;;;;;5129869;27;20568;-79
2021/03/19 13:13:55;;;;;;;10.32;7.15;;;6.40;99.90;;;;;;5106063;27;20221;-79
2021/03/19 13:16:22;;;;;;;10.15;8.00;;;6.50;99.90;;;;;;5107228;28;20364;-81
2021/03/19 13:18:51;;;;;;;8.18;6.93;;;6.60;99.90;;;;;;5122650;27;20222;-82
2021/03/19 13:21:18;;;;;;;11.35;7.80;;;6.50;99.90;;;;;;5121789;27;20193;-80
2021/03/19 13:23:45;;;;;;;8.90;7.82;;;6.50;99.90;;;;;;5119298;27;20208;-80
2021/03/19 13:26:12;;;;;;;10.80;8.95;;;6.60;99.90;;;;;;5107487;27;20752;-80
2021/03/19 13:28:39;;;;;;;12.38;8.75;;;6.30;99.90;;;;;;5103132;27;20339;-79
2021/03/19 13:31:07;;;;;;;9.32;7.45;;;6.20;99.90;;;;;;5107754;27;20208;-80
2021/03/19 13:33:35;;;;;;;13.27;9.05;;;6.20;99.90;;;;;;5130599;27;20205;-80
2021/03/19 13:36:07;;;;;;;11.50;8.55;;;6.20;99.90;;;;;;5128088;27;20227;-81